Date,TemperatureHighF,TemperatureAvgF,TemperatureLowF,DewpointHighF,DewpointAvgF,DewpointLowF,HumidityHigh,HumidityAvg,HumidityLow,PressureMaxIn,PressureMinIn,WindSpeedMaxMPH,WindSpeedAvgMPH,GustSpeedMaxMPH,PrecipitationSumIn
2013-1-1,27.5,21.7,15.6,9.1,4.0,-0.1,56,46,33,29.47,29.35,6,3,11,0.00
2013-1-2,26.8,21.5,16.5,13.8,8.2,3.3,64,56,48,29.47,29.38,6,2,9,0.00
2013-1-3,27.7,22.3,16.0,19.2,10.1,0.4,70,59,48,29.47,29.35,8,4,11,0.00
2013-1-4,32.4,27.6,23.0,16.6,13.0,10.6,64,54,45,29.47,29.29,11,6,15,0.00
2013-1-5,35.4,27.2,16.5,29.8,17.4,10.9,92,68,45,29.56,29.32,6,3,9,0.00
2013-1-6,34.5,32.8,30.2,29.5,23.5,16.0,89,69,54,29.56,29.21,8,3,11,0.00
2013-1-7,35.4,30.1,26.6,16.0,14.3,12.2,58,52,41,29.65,29.41,10,3,17,0.00
2013-1-8,36.7,29.9,25.2,20.2,15.8,12.6,65,56,44,29.53,29.44,6,4,9,0.00
2013-1-9,44.2,37.0,30.6,27.5,19.9,14.7,71,51,31,29.71,29.29,13,5,17,0.12
2013-1-10,42.8,31.4,21.9,28.3,19.5,15.9,82,63,39,29.88,29.47,4,1,6,0.04
2013-1-11,53.6,43.6,34.9,52.0,40.3,26.9,98,89,71,29.44,29.06,8,3,10,0.47
2013-1-12,58.1,49.9,44.1,44.2,39.4,27.3,90,69,44,29.26,29.15,8,3,11,0.00
2013-1-13,44.2,36.2,27.0,36.3,32.6,19.5,94,87,53,29.35,29.15,7,2,15,0.35
2013-1-14,27.0,21.8,15.3,18.6,9.2,5.7,74,58,43,29.74,29.35,6,2,11,0.00
2013-1-15,28.8,19.4,10.8,14.3,8.4,3.5,79,63,41,29.74,29.47,3,0,6,0.00
2013-1-16,33.1,25.3,14.2,23.5,11.6,7.1,80,58,35,29.47,29.09,13,4,15,0.00
2013-1-17,32.7,27.1,18.1,23.3,11.7,0.7,75,53,41,29.62,29.26,10,4,15,0.00
2013-1-18,30.7,17.4,9.9,11.2,4.4,-0.5,72,57,37,29.74,29.44,8,2,13,0.00
2013-1-21,4.5,4.1,3.6,-15.0,-15.4,-16.0,39,39,39,29.41,29.38,13,4,13,0.00
2013-1-22,9.1,3.3,-3.1,-10.8,-16.0,-21.9,39,39,39,29.59,29.41,13,4,15,0.00
2013-1-23,15.8,8.8,-0.4,5.2,-6.7,-19.4,70,49,39,29.59,29.35,6,3,10,0.00
2013-1-24,19.6,9.4,3.6,5.8,-4.5,-13.2,71,55,34,29.88,29.41,6,2,11,0.00
2013-1-25,22.3,16.4,10.4,11.4,3.3,-8.6,75,56,41,29.80,29.29,6,1,8,0.00
2013-1-26,32.7,20.8,10.4,9.1,4.3,-1.0,62,49,36,29.74,29.53,10,2,10,0.00
2013-1-27,28.8,21.5,10.2,22.8,9.5,0.6,80,61,39,29.77,29.41,6,1,12,0.00
2013-1-28,43.3,36.2,29.5,42.8,34.6,24.4,98,94,81,29.44,29.15,6,2,9,0.39
2013-1-29,57.2,41.5,31.8,54.7,40.3,29.5,98,96,81,29.32,28.76,8,2,13,0.39
2013-1-30,57.0,47.0,30.4,54.4,44.6,22.4,98,92,72,28.76,28.47,8,2,24,0.79
2013-1-31,28.0,20.3,14.4,15.6,8.0,2.3,75,59,43,29.18,28.61,0,0,0,0.00
2013-2-1,19.2,13.4,8.4,5.7,0.3,-6.8,69,56,41,29.53,29.21,0,0,0,0.00
2013-2-2,22.5,15.7,10.4,9.2,2.9,-5.0,72,57,49,29.50,29.26,0,0,0,0.00
2013-2-3,21.2,16.6,10.0,8.0,1.9,-4.1,65,52,44,29.29,29.15,0,0,0,0.00
2013-2-4,24.4,17.7,8.8,8.2,5.3,-4.3,70,58,48,29.35,29.18,5,0,5,0.00
2013-2-5,27.3,17.5,1.2,24.5,7.4,-8.4,89,64,45,29.26,29.12,13,3,13,0.00
2013-2-6,30.9,21.3,6.1,15.8,7.7,-3.8,75,56,39,29.59,29.26,12,2,13,0.00
2013-2-7,37.0,30.0,24.1,22.8,15.1,8.6,78,54,44,29.59,29.21,5,2,8,0.04
2013-2-8,28.8,24.0,8.6,25.8,14.0,-4.3,89,67,45,29.65,29.18,13,4,22,0.00
2013-2-9,34.2,13.2,-4.4,11.2,-2.3,-16.4,77,51,34,29.74,29.59,4,1,8,0.00
2013-2-10,39.0,33.9,20.8,34.6,21.0,6.6,90,61,39,29.59,28.97,11,3,11,0.39
2013-2-11,43.7,36.4,30.9,42.1,25.0,16.2,96,64,47,29.18,28.85,17,7,22,0.08
2013-2-12,30.9,28.8,26.8,17.3,14.5,12.1,58,55,48,29.35,29.18,11,4,12,0.08
2013-2-13,37.8,29.6,25.7,21.8,16.3,13.6,79,58,42,29.26,29.03,9,2,11,0.00
2013-2-14,39.6,33.4,28.2,30.5,24.7,19.0,83,71,55,29.18,28.97,15,4,15,0.00
2013-2-15,31.3,25.5,20.1,21.6,7.7,2.0,67,47,35,29.44,29.18,13,4,13,0.00
2013-2-16,27.5,20.2,15.8,12.6,5.7,0.7,66,53,40,29.41,29.29,11,2,11,0.00
2013-2-17,27.3,16.0,8.4,7.7,-1.4,-6.4,65,47,32,29.50,29.38,13,2,13,0.00
2013-2-18,44.6,30.6,14.2,26.9,11.4,-0.5,58,45,34,29.50,28.88,13,4,13,0.00
2013-2-19,45.0,29.9,17.1,38.0,19.5,1.2,86,66,45,29.23,28.70,18,3,18,0.12
2013-2-20,22.6,19.1,14.5,9.2,2.9,-0.3,62,49,40,29.53,29.23,13,2,16,0.00
2013-2-21,26.2,21.3,19.2,9.5,6.2,3.5,61,52,41,29.68,29.53,11,3,15,0.00
2013-2-22,33.1,27.1,21.0,32.1,19.2,9.7,97,73,52,29.59,29.18,8,3,11,0.00
2013-2-23,32.9,28.6,23.2,26.5,15.6,11.4,77,58,43,29.23,29.18,9,5,11,0.00
2013-2-24,37.0,26.4,21.0,20.4,15.4,11.2,83,64,42,29.47,29.21,6,2,12,0.08
2013-2-25,43.0,31.2,23.0,21.6,17.1,12.7,79,58,32,29.53,29.41,6,0,6,0.04
2013-2-26,34.5,30.2,25.2,31.5,20.8,14.8,93,69,50,29.44,28.88,12,2,12,0.04
2013-2-27,37.8,34.1,32.7,34.4,31.1,28.6,95,89,76,28.88,28.82,4,0,6,0.31
2013-2-28,35.8,32.7,28.6,32.6,26.5,16.8,98,79,56,29.32,28.88,11,1,15,0.16
2013-3-1,28.6,25.9,23.9,17.8,12.8,9.8,65,57,50,29.44,29.32,0,0,0,0.12
2013-3-2,28.0,23.6,18.7,11.9,10.1,6.9,63,56,47,29.44,29.35,8,0,8,0.04
2013-3-3,31.3,21.4,12.7,9.1,6.2,3.5,68,52,36,29.41,29.29,13,3,13,0.00
2013-3-4,38.3,20.8,10.2,11.3,5.4,0.5,72,53,30,29.47,29.38,8,1,8,0.00
2013-3-5,41.2,25.7,13.3,17.4,12.5,4.4,75,58,33,29.47,29.18,11,2,11,0.00
2013-3-6,39.4,31.1,25.3,23.1,19.0,16.8,80,62,42,29.50,29.23,9,2,9,0.00
2013-3-7,38.5,30.5,20.8,28.0,18.1,9.2,88,62,35,29.71,29.50,12,2,12,0.00
2013-3-8,49.1,29.1,16.5,18.5,14.8,10.3,78,58,28,29.83,29.71,8,1,8,0.00
2013-3-9,47.7,34.2,23.2,24.7,20.1,17.0,83,58,33,29.71,29.32,8,1,8,0.00
2013-3-10,56.7,46.9,37.6,34.4,27.4,22.6,68,47,36,29.32,29.09,10,4,14,0.00
2013-3-11,55.2,48.8,35.8,49.1,37.9,26.7,97,69,36,29.12,28.82,10,4,13,0.39
2013-3-12,37.6,33.0,29.3,29.6,22.0,14.8,88,65,42,29.21,29.00,9,4,13,0.00
2013-3-13,33.1,27.9,21.6,24.1,11.3,3.7,80,51,34,29.50,29.21,13,5,15,0.00
2013-3-14,36.7,26.6,20.1,11.9,8.1,3.9,60,46,33,29.56,29.38,6,2,10,0.00
2013-3-15,39.0,34.1,30.2,29.7,21.2,7.1,86,60,36,29.38,29.18,8,3,11,0.00
2013-3-16,34.2,30.2,25.7,30.0,20.3,14.4,87,67,46,29.29,29.12,4,0,4,0.04
2013-3-17,31.6,26.7,19.8,6.9,5.3,3.8,50,40,32,29.53,29.53,8,3,8,0.00
2013-3-18,33.8,26.1,18.5,32.5,15.2,4.1,95,64,47,29.53,28.88,8,3,13,0.00
2013-3-19,33.4,25.2,21.6,27.1,11.6,4.6,79,56,41,29.23,28.94,9,0,13,0.00
2013-3-20,31.8,23.0,15.4,8.9,4.7,1.8,60,45,32,29.26,29.21,8,1,17,0.00
2013-3-21,31.5,24.0,14.9,16.3,10.5,2.4,73,57,45,29.26,29.18,11,4,13,0.00
2013-3-22,38.3,29.9,24.3,14.6,10.8,6.8,56,45,33,29.35,29.26,9,4,12,0.04
2013-3-23,35.8,29.3,25.3,20.1,15.5,12.7,75,57,40,29.41,29.35,7,2,9,0.00
2013-3-24,37.2,28.9,21.7,21.4,16.6,13.6,81,61,39,29.38,29.03,9,1,12,0.00
2013-3-25,37.8,33.1,29.8,21.4,17.8,15.5,61,53,42,29.26,28.97,12,2,17,0.00
2013-3-26,45.7,36.1,31.3,24.0,21.2,17.9,73,55,38,29.44,29.26,8,4,13,0.00
2013-3-27,49.3,37.0,28.6,20.8,17.4,14.4,71,47,27,29.53,29.44,10,4,15,0.00
2013-3-28,33.4,30.8,28.6,17.7,15.9,14.0,63,54,46,29.56,29.53,10,3,10,0.00
2013-4-3,47.1,30.9,19.4,10.8,7.2,3.7,61,39,19,29.74,29.62,17,3,21,0.00
2013-4-4,55.0,40.5,24.6,14.2,9.1,5.6,50,29,17,29.68,29.26,9,4,13,0.00
2013-4-5,54.9,40.9,31.5,23.1,13.2,6.5,69,35,17,29.53,29.26,13,3,23,0.00
2013-4-6,50.9,40.1,30.2,17.0,13.5,6.9,53,35,23,29.56,29.06,6,2,11,0.00
2013-4-7,55.6,47.5,31.8,38.3,25.7,15.6,71,44,26,29.35,28.91,13,4,17,0.00
2013-4-8,59.2,41.4,27.9,51.0,33.5,21.3,94,75,44,29.38,29.00,11,2,15,0.24
2013-4-9,50.0,44.1,40.1,42.9,38.6,34.0,88,82,54,29.41,29.21,11,2,12,0.63
2013-4-10,42.3,39.4,37.0,38.6,35.4,28.8,91,85,72,29.38,29.21,8,1,10,0.43
2013-4-11,36.9,36.1,35.1,33.3,31.5,28.5,88,84,72,29.35,29.00,8,3,13,0.63
2013-4-12,35.4,34.3,33.6,32.0,31.4,30.7,91,89,86,29.00,28.91,6,1,8,0.24
2013-4-13,40.6,38.0,35.8,25.3,18.9,15.2,59,46,38,29.29,29.12,13,5,15,0.00
2013-4-14,47.1,38.2,27.9,30.4,23.5,17.0,81,56,40,29.41,29.23,6,2,8,0.00
2013-4-15,66.7,54.6,39.6,51.8,35.9,25.2,82,50,36,29.26,29.18,13,4,15,0.00
2013-4-16,60.6,51.5,44.4,52.6,34.3,22.4,89,57,26,29.56,29.18,8,2,13,0.12
2013-4-17,64.4,48.0,38.1,39.1,27.8,21.8,80,49,23,29.68,29.29,6,2,11,0.35
2013-4-18,73.4,57.2,44.4,57.9,50.3,37.0,95,79,49,29.35,28.88,17,4,17,0.75
2013-4-19,58.8,54.1,41.7,57.4,51.3,36.9,96,90,80,28.91,28.70,8,3,11,0.83
2013-4-21,37.0,36.5,36.0,15.6,14.8,14.0,43,41,39,29.77,29.77,0,0,0,0.00
2013-4-22,66.6,47.6,31.6,25.5,18.9,11.4,70,36,16,29.77,29.50,6,1,6,0.00
2013-4-23,66.7,53.9,41.5,51.6,33.3,21.5,87,49,26,29.50,29.15,13,3,13,0.28
2013-4-24,48.0,38.9,34.7,43.1,28.6,13.9,85,69,35,29.44,29.15,16,4,16,0.16
2013-4-25,51.1,41.2,34.3,35.4,22.2,16.0,80,48,27,29.65,29.38,15,4,15,0.00
2013-4-26,59.4,46.2,29.3,26.7,22.9,17.6,83,44,24,29.74,29.62,12,3,12,0.00
2013-4-27,74.3,54.3,39.6,31.1,27.5,22.0,68,39,16,29.65,29.50,9,3,9,0.00
2013-4-28,62.2,55.9,50.5,49.3,43.1,27.2,86,65,36,29.32,29.18,8,1,8,0.12
2013-4-29,72.7,60.4,52.2,53.8,46.0,38.5,95,64,32,29.26,29.18,7,1,7,0.00
2013-4-30,72.1,61.6,54.7,53.3,46.9,41.2,90,61,34,29.38,29.23,12,3,12,0.28
2013-5-1,87.3,68.8,56.7,48.1,43.7,36.0,72,45,18,29.53,29.38,7,2,8,0.00
2013-5-2,82.8,68.0,56.1,47.3,39.4,31.9,66,38,21,29.56,29.44,6,2,8,0.00
2013-5-3,83.1,67.0,54.3,41.3,33.7,22.4,48,31,16,29.44,29.35,8,2,10,0.00
2013-5-4,78.1,64.6,53.4,36.7,29.7,18.8,46,29,13,29.44,29.38,6,2,9,0.00
2013-5-5,66.9,52.7,46.9,36.8,32.4,28.9,64,47,29,29.44,29.38,4,0,5,0.00
2013-5-6,81.0,61.8,43.2,39.5,32.4,24.6,71,38,14,29.41,29.29,8,1,8,0.00
2013-5-7,79.3,63.1,46.6,42.6,36.1,31.1,69,40,21,29.41,29.32,6,1,6,0.00
2013-5-8,86.2,66.1,49.3,47.4,38.6,28.8,83,44,16,29.38,29.26,8,1,8,0.00
2013-5-9,83.8,67.6,54.1,48.6,41.0,30.9,80,44,16,29.32,29.21,6,0,6,0.00
2013-5-10,66.0,52.0,43.2,54.6,44.1,37.1,86,75,42,29.23,29.12,9,2,9,0.28
2013-5-11,61.0,46.9,38.3,43.4,35.2,23.9,86,66,35,29.23,29.06,15,2,15,0.04
2013-5-12,51.1,40.2,31.6,29.5,21.4,13.4,71,48,30,29.41,29.21,17,3,17,0.00
2013-5-13,57.6,43.0,29.8,26.2,18.5,12.1,75,41,20,29.50,29.41,12,1,12,0.00
2013-5-14,73.2,56.6,42.1,42.4,28.6,19.0,58,35,23,29.41,29.03,9,1,9,0.00
2013-5-15,82.8,68.8,55.0,48.8,38.6,30.0,61,37,19,29.12,28.91,9,2,10,0.00
2013-5-16,85.5,65.9,48.0,39.9,34.1,23.6,73,36,14,29.38,29.12,5,1,6,0.00
2013-5-17,76.3,59.7,46.8,34.9,32.1,29.2,57,37,22,29.50,29.38,4,1,6,0.00
2013-5-18,58.6,55.5,53.6,38.7,36.0,33.1,55,48,39,29.50,29.47,3,0,4,0.00
2013-5-24,44.1,43.4,42.6,37.1,36.7,35.9,78,77,76,29.65,29.65,0,0,0,0.00
2013-5-25,70.0,51.9,36.9,37.1,31.4,22.9,87,53,22,29.74,29.62,6,0,6,0.00
2013-5-26,75.0,55.2,36.5,42.2,30.3,21.8,90,47,16,29.71,29.56,5,0,6,0.00
2013-5-27,68.5,53.3,41.5,46.5,33.8,20.6,81,52,23,29.59,29.35,6,1,6,0.00
2013-5-28,70.5,61.0,52.2,68.2,58.4,46.5,98,91,81,29.35,29.12,5,0,5,2.20
2013-5-29,78.8,74.6,67.3,65.9,54.3,50.4,92,50,41,29.29,29.15,7,2,7,0.35
2013-5-30,86.2,73.9,62.6,65.1,57.5,50.1,88,60,31,29.35,29.26,8,2,9,0.12
2013-5-31,77.2,72.1,68.5,61.9,57.5,52.2,79,61,43,29.29,29.15,8,2,10,0.00
2013-6-1,77.9,69.6,63.7,63.1,56.7,48.7,95,66,38,29.21,29.00,6,2,9,0.16
2013-6-2,67.3,64.5,62.2,58.1,52.9,44.0,79,67,43,29.12,28.97,5,2,10,0.00
2013-6-3,71.6,59.1,41.4,43.0,32.7,27.6,82,41,22,29.44,29.35,4,1,6,0.00
2013-6-4,77.7,60.5,46.0,42.7,37.0,28.5,82,48,21,29.53,29.41,4,0,6,0.00
2013-6-5,76.1,61.4,51.8,46.2,36.3,29.9,65,42,21,29.53,29.35,3,0,6,0.00
2013-6-6,70.5,60.8,54.5,46.2,40.9,36.5,72,49,34,29.38,29.23,6,1,6,0.00
2013-6-7,64.2,56.6,50.7,48.3,43.5,39.9,80,63,44,29.29,29.23,6,1,6,0.00
2013-6-8,72.7,62.3,52.5,49.5,44.7,38.4,82,57,31,29.41,29.26,4,0,4,0.00
2013-6-9,81.9,66.9,55.8,50.2,45.0,38.9,79,49,26,29.44,29.26,5,1,8,0.00
2013-6-10,73.4,65.8,60.3,63.7,57.2,39.5,89,75,38,29.29,29.06,4,0,5,0.87
2013-6-11,81.1,70.3,62.4,62.1,56.4,50.1,92,65,35,29.23,29.12,4,0,7,0.00
2013-6-12,73.9,67.2,59.7,63.8,58.6,53.8,90,75,52,29.26,29.00,4,0,5,0.04
2013-6-13,83.7,69.6,61.7,63.6,53.9,42.6,90,63,26,29.26,28.94,5,1,9,0.55
2013-6-14,81.3,66.9,56.5,55.0,46.6,36.6,82,53,25,29.44,29.26,4,1,8,0.00
2013-6-15,76.6,65.5,55.4,54.7,49.1,44.7,80,57,34,29.41,29.23,4,0,6,0.00
2013-6-16,79.2,69.6,62.6,63.4,53.4,36.7,96,61,25,29.23,29.09,6,2,11,0.31
2013-6-17,86.2,70.6,57.2,55.3,49.9,40.8,89,53,21,29.26,29.12,4,0,6,0.00
2013-6-18,79.5,64.8,53.1,54.7,41.0,28.0,75,47,21,29.41,29.21,5,1,8,0.00
2013-6-19,80.8,62.1,45.5,48.5,37.6,30.7,76,46,20,29.50,29.38,4,0,5,0.00
2013-6-20,83.8,67.5,53.8,48.9,42.3,33.0,81,46,19,29.50,29.44,4,0,6,0.00
2013-6-21,84.4,70.9,57.7,54.8,48.5,43.4,74,48,29,29.50,29.32,4,1,6,0.00
2013-6-22,88.7,74.3,65.5,65.3,54.9,44.7,83,54,29,29.35,29.29,4,1,6,0.08
2013-6-23,87.3,76.5,69.4,66.8,59.4,48.1,89,60,26,29.29,29.21,6,1,8,0.00
2013-6-24,85.6,76.0,68.0,65.2,58.3,51.9,86,57,32,29.29,29.15,5,1,8,0.04
2013-6-25,78.6,70.9,66.4,65.9,61.9,56.8,91,74,48,29.23,29.09,4,0,8,0.20
2013-6-26,83.5,73.3,64.4,66.1,60.7,55.6,94,67,40,29.15,29.00,4,0,5,0.00
2013-6-27,89.4,72.7,65.7,66.0,61.4,53.4,90,71,31,29.03,28.91,4,0,7,0.83
2013-6-28,80.8,68.0,64.6,66.6,60.5,48.7,95,79,35,28.91,28.79,5,0,8,0.24
2013-6-29,76.5,67.8,63.1,62.1,54.4,46.8,90,65,36,29.00,28.82,6,0,6,0.00
2013-6-30,85.6,68.5,58.1,56.6,48.8,32.4,78,52,28,29.23,29.00,5,1,8,0.00
2013-7-1,69.1,61.4,54.7,47.2,43.1,40.1,64,52,36,29.35,29.23,4,1,6,0.00
2013-7-2,81.1,66.4,57.7,54.3,47.9,41.0,73,53,31,29.32,29.26,4,0,6,0.00
2013-7-3,81.3,68.8,58.8,60.4,53.9,48.3,83,62,33,29.32,29.26,4,0,5,0.00
2013-7-4,80.2,72.2,64.4,63.2,51.3,40.5,91,51,28,29.35,29.26,6,1,6,0.00
2013-7-5,86.9,72.0,64.2,62.6,55.4,46.0,84,61,29,29.32,29.23,2,0,4,0.00
2013-7-6,70.3,68.1,66.0,64.9,62.1,60.4,91,81,72,29.29,29.26,0,0,0,0.00
2013-7-16,93.7,85.5,73.8,72.6,62.3,55.4,90,49,29,29.38,29.29,5,0,5,0.00
2013-7-17,96.4,81.7,70.5,69.9,63.4,54.7,88,58,27,29.32,29.18,4,0,6,0.00
2013-7-18,93.7,81.5,71.1,68.5,63.3,55.8,89,58,30,29.21,28.97,4,1,6,0.00
2013-7-19,91.8,82.7,75.4,67.8,59.7,47.2,77,49,25,29.00,28.73,8,2,11,0.00
2013-7-20,93.0,77.6,66.6,63.8,53.5,39.1,79,49,17,28.97,28.76,4,1,8,0.00
2013-7-21,86.2,71.2,59.2,59.1,49.5,42.5,76,50,23,29.06,28.94,4,0,4,0.00
2013-7-22,80.8,72.3,65.5,63.0,56.3,49.7,85,60,36,28.97,28.76,4,0,5,0.00
2013-7-23,82.0,69.6,60.4,67.3,56.7,38.9,87,66,36,28.91,28.67,6,1,8,0.24
2013-7-24,79.5,64.1,52.2,47.0,40.4,35.3,72,44,23,29.06,28.91,5,1,6,0.00
2013-7-25,81.0,63.5,49.3,52.2,43.7,33.7,87,55,21,29.12,29.03,3,0,5,0.00
2013-7-26,79.2,69.3,58.5,58.1,47.8,43.6,80,48,30,29.06,28.88,5,1,6,0.04
2013-7-27,79.9,66.1,56.1,61.1,53.3,36.8,87,66,30,28.88,28.70,6,0,11,0.12
2013-7-28,66.6,56.8,50.2,50.8,45.1,36.7,85,66,39,28.94,28.79,5,1,6,0.08
2013-7-29,68.5,60.5,55.2,54.0,48.6,43.0,86,67,40,29.12,28.91,4,0,8,0.08
2013-7-30,80.6,61.8,49.8,59.4,48.7,41.8,92,67,27,29.21,29.06,4,0,6,0.00
2013-7-31,66.0,64.1,61.0,62.8,60.1,54.4,91,87,77,29.06,28.85,0,0,3,0.55
2013-8-1,80.1,66.4,59.4,62.3,53.8,39.9,94,68,25,28.88,28.82,4,0,6,0.00
2013-8-2,74.7,64.6,55.9,59.6,51.4,44.6,81,63,36,28.88,28.76,5,1,7,0.00
2013-8-3,81.7,67.3,55.6,58.8,48.2,37.1,89,56,22,29.00,28.85,5,0,6,0.00
2013-8-4,77.5,63.2,54.3,52.3,46.9,40.1,82,59,27,29.12,29.00,5,0,6,0.00
2013-8-5,72.7,61.3,52.9,51.7,46.5,38.5,86,61,29,29.06,28.88,4,0,8,0.00
2013-8-6,76.3,67.8,62.1,64.8,57.3,48.2,89,70,47,28.88,28.79,4,0,5,0.08
2013-8-7,81.7,71.8,63.1,65.8,60.5,51.6,96,71,36,28.85,28.73,8,1,10,0.16
2013-8-8,81.9,69.2,59.4,58.6,50.3,41.0,76,54,27,28.97,28.82,4,0,6,0.00
2013-8-9,82.0,67.6,54.9,56.1,48.1,36.8,88,55,21,28.94,28.85,5,0,5,0.00
2013-8-10,83.3,67.2,56.3,55.6,48.3,37.0,83,55,23,29.06,28.94,3,0,5,0.00
2013-8-11,77.4,67.5,61.3,56.7,49.9,39.1,80,56,27,29.03,28.94,5,0,8,0.00
2013-8-12,68.5,64.9,62.1,65.0,60.0,56.1,95,84,71,28.97,28.76,5,0,5,0.20
2013-8-13,72.0,61.7,54.9,63.4,42.2,28.4,97,55,23,28.97,28.76,7,1,8,0.00
2013-8-14,73.0,58.2,47.7,47.7,40.0,33.4,78,54,26,29.09,28.97,4,0,5,0.00
2013-8-15,72.3,59.2,47.1,50.9,43.4,35.0,89,60,26,29.09,28.97,6,0,6,0.00
2013-8-16,83.8,63.9,49.5,52.8,44.9,34.0,88,57,19,29.12,29.03,5,0,5,0.00
2013-8-17,80.4,57.2,50.4,60.1,48.8,40.2,91,77,24,29.18,29.12,2,0,4,0.00
2013-8-18,86.4,71.4,53.4,60.3,49.0,37.9,87,51,19,29.15,29.00,4,0,4,0.00
2013-8-19,86.7,67.7,54.1,59.3,49.1,36.7,93,59,18,29.03,28.91,6,0,6,0.00
2013-8-20,85.5,70.0,57.6,59.7,53.0,45.2,91,60,28,29.03,28.94,6,1,6,0.00
2013-8-21,87.3,73.0,61.9,60.7,55.2,47.0,91,59,29,29.03,28.88,7,1,7,0.00
2013-8-22,86.2,73.3,66.9,61.3,55.8,47.9,76,56,30,28.94,28.82,8,0,8,0.00
2013-8-23,86.9,68.5,55.0,61.0,47.9,37.5,82,53,20,29.09,28.94,4,0,6,0.00
2013-8-24,90.0,67.3,52.0,57.9,46.0,37.2,89,53,18,29.21,29.09,4,0,4,0.00
2013-8-25,86.9,71.7,58.1,56.2,51.4,44.6,91,54,24,29.18,29.00,5,1,6,0.00
2013-8-26,86.2,75.0,67.5,63.7,55.4,51.3,79,52,33,29.03,28.85,5,1,8,0.00
2013-8-27,81.0,74.0,69.4,72.3,67.1,62.4,94,80,56,28.91,28.73,6,0,9,2.44
2013-8-28,79.9,73.1,65.5,71.2,65.7,52.7,95,80,45,28.91,28.67,4,0,6,0.08
2013-8-29,89.8,73.0,63.7,65.4,59.3,49.8,89,67,29,28.97,28.88,0,0,0,0.00
2013-8-30,85.1,74.7,66.7,67.7,60.6,51.9,91,65,33,28.88,28.61,9,1,9,0.00
2013-8-31,79.7,71.7,64.6,67.3,58.9,52.5,83,66,42,28.76,28.64,3,0,5,0.00
2013-9-1,76.5,68.8,63.0,66.8,61.5,58.1,89,79,59,28.73,28.59,0,0,3,0.39
2013-9-2,77.9,67.1,59.2,66.9,52.3,40.0,96,63,30,28.79,28.61,5,1,8,0.00
2013-9-3,77.9,63.9,57.4,49.7,42.5,34.7,69,48,23,28.88,28.76,6,1,6,0.00
2013-9-4,80.6,66.6,55.0,56.0,49.7,42.3,90,59,26,28.91,28.79,4,1,10,0.00
2013-9-5,76.6,60.5,50.2,56.1,39.6,30.0,71,49,23,29.06,28.91,5,1,6,0.00
2013-9-6,73.6,59.3,46.0,50.2,42.2,34.6,89,59,25,29.06,28.82,4,0,7,0.00
2013-9-7,76.3,66.0,58.3,66.1,53.6,38.9,92,66,41,28.82,28.61,4,0,5,0.16
2013-9-8,79.0,67.5,55.6,64.7,50.1,38.5,91,59,25,28.82,28.67,4,0,7,0.04
2013-9-9,75.2,64.0,51.8,65.2,55.5,42.1,86,74,60,28.76,28.56,0,0,0,0.04
2013-9-10,91.0,78.7,69.8,65.4,57.4,42.3,84,53,21,28.64,28.53,6,1,8,0.00
2013-9-11,88.3,76.6,68.5,62.5,56.2,50.9,70,51,29,28.64,28.56,3,0,6,0.00
2013-9-12,83.7,67.5,56.3,62.6,50.6,35.7,90,59,20,28.56,28.47,7,1,8,0.20
2013-9-13,59.4,53.6,44.2,38.8,34.3,28.5,74,49,35,28.70,28.56,6,2,10,0.00
2013-9-14,69.8,55.4,39.0,42.5,33.8,25.6,82,50,23,28.70,28.59,6,0,6,0.00
2013-9-15,49.1,48.2,46.8,42.8,40.7,38.4,81,75,67,28.61,28.59,0,0,0,0.00
2013-9-29,61.2,55.3,52.3,53.4,50.1,48.0,87,83,75,28.11,28.08,0,0,0,0.00
2013-9-30,69.6,58.0,50.7,56.1,45.9,33.1,92,69,30,28.14,28.02,0,0,0,0.00
2013-10-1,72.9,60.6,49.6,61.7,52.2,45.8,98,76,45,28.08,27.99,8,1,8,0.00
2013-10-2,77.7,62.2,50.5,57.6,43.9,22.5,91,60,15,28.17,27.99,5,0,5,0.00
2013-10-3,78.3,63.3,48.4,56.9,49.8,41.2,91,64,38,28.14,27.96,7,1,7,0.00
2013-10-4,76.6,68.9,63.5,61.7,57.8,51.3,88,70,43,28.08,27.96,0,0,0,0.00
2013-10-5,72.1,66.8,62.6,65.8,60.2,57.2,91,80,62,28.08,27.88,0,0,0,0.39
2013-10-6,69.1,64.0,53.6,65.3,57.0,49.3,91,79,56,27.88,27.67,6,0,6,0.28
2013-10-7,57.4,50.8,45.1,49.7,39.7,31.3,90,67,38,28.08,27.73,11,1,11,0.04
2013-10-8,69.3,53.2,40.5,45.8,35.5,28.3,89,56,23,28.23,28.08,6,0,6,0.00
2013-10-9,72.3,54.4,44.6,51.4,38.4,31.4,91,60,24,28.26,28.14,5,0,5,0.00
2013-10-10,72.7,53.3,41.5,55.5,36.9,28.1,92,60,21,28.17,28.02,4,0,5,0.00
2013-10-11,73.0,53.1,39.0,52.3,35.7,25.0,88,58,19,28.05,27.94,4,0,4,0.00
2013-10-12,77.9,59.5,44.6,58.4,43.1,36.0,96,60,26,27.96,27.85,6,1,6,0.00
2013-10-13,61.7,55.8,43.3,53.7,43.2,27.8,83,65,30,28.08,27.88,10,0,10,0.00
2013-10-14,65.3,48.5,37.9,42.7,32.3,24.1,87,59,24,27.88,25.28,6,0,6,0.00
2013-10-15,65.3,56.7,37.2,59.1,46.8,31.3,94,71,44,25.28,25.28,8,2,8,0.12
2013-10-16,60.8,53.5,50.2,59.1,43.8,33.4,94,71,47,25.28,25.28,8,1,8,0.00
2013-10-17,52.3,50.2,49.3,49.2,46.7,42.9,92,88,75,25.28,25.28,4,0,4,0.31
2013-10-21,50.9,45.3,41.0,35.7,28.1,24.1,58,51,44,25.28,25.28,10,2,10,0.00
2013-10-22,49.5,40.6,32.7,24.2,19.6,16.4,57,44,28,25.28,25.28,15,1,15,0.00
2013-10-23,49.1,38.6,32.7,29.8,23.1,14.2,75,56,28,25.28,25.28,11,1,11,0.00
2013-10-24,46.9,36.6,31.1,30.1,23.9,16.5,86,62,31,25.28,25.28,10,1,10,0.00
2013-10-25,46.8,37.5,31.5,30.2,22.1,15.6,86,57,32,25.28,25.28,9,2,9,0.00
2013-10-26,50.4,42.4,37.6,36.4,21.5,14.8,79,44,32,25.28,25.28,11,3,11,0.04
2013-10-27,50.7,40.4,31.6,27.5,22.4,18.2,77,51,29,25.28,25.28,8,1,8,0.00
2013-10-28,48.6,39.6,31.6,34.2,24.0,19.0,78,55,38,25.28,25.28,7,0,7,0.00
2013-10-29,48.7,41.6,37.6,25.8,22.6,19.3,57,47,37,25.28,25.28,5,0,5,0.00
2013-10-30,61.7,47.0,32.4,47.2,32.1,24.5,98,60,34,25.28,25.28,5,0,5,0.00
2013-10-31,60.4,58.5,52.5,59.7,56.0,47.3,98,92,82,25.28,0.00,8,2,8,1.30
2013-11-1,60.6,48.4,44.8,55.6,36.4,26.9,87,64,44,25.28,25.28,13,3,13,0.08
2013-11-2,45.9,42.8,35.8,43.5,35.6,25.8,92,76,60,25.28,0.00,9,2,9,0.16
2013-11-3,43.7,37.0,29.7,33.0,24.4,19.0,85,62,40,25.28,25.28,6,1,6,0.00
2013-11-4,49.1,40.6,31.5,27.4,19.4,12.3,74,45,24,25.28,25.28,9,2,9,0.00
2013-11-5,55.0,50.0,43.7,39.9,32.6,23.2,66,51,42,0.00,0.00,6,2,6,0.00
2013-11-6,55.0,51.1,41.4,51.3,40.0,27.8,89,68,38,0.00,0.00,13,4,13,0.00
2013-11-7,45.9,38.6,34.2,32.8,21.1,12.8,78,51,28,0.00,0.00,11,3,11,0.00
2013-11-8,46.0,35.2,30.0,22.9,17.1,11.6,74,49,27,0.00,0.00,10,1,10,0.00
2013-11-9,52.5,45.7,35.8,29.3,22.8,17.3,51,40,34,0.00,0.00,12,4,12,0.00
2013-11-10,48.2,40.5,32.5,24.8,19.2,15.2,56,43,31,0.00,0.00,17,3,17,0.00
2013-11-11,41.4,35.1,26.1,33.7,21.7,11.4,78,59,43,0.00,0.00,17,4,17,0.00
2013-11-12,33.8,26.2,21.4,13.0,9.2,5.8,66,49,32,0.00,0.00,12,4,12,0.00
2013-11-13,39.2,29.1,18.3,14.5,8.3,1.5,69,44,24,0.00,0.00,13,5,13,0.00
2013-11-14,50.0,40.7,31.1,16.4,10.7,6.1,36,29,24,29.41,29.26,11,6,13,0.00
2013-11-15,52.9,43.6,37.2,17.6,13.8,10.7,40,30,21,29.38,29.29,11,4,11,0.00
2013-11-16,55.8,46.7,34.7,50.0,33.0,16.6,82,60,40,29.41,29.09,15,3,15,0.00
2013-11-17,61.7,58.7,54.0,56.1,51.9,45.6,88,78,67,29.09,28.59,17,5,20,0.43
2013-11-18,34.0,34.0,34.0,12.7,12.7,12.7,41,41,41,29.44,29.44,10,6,10,0.00
2013-11-19,34.0,30.2,25.3,14.4,12.2,9.8,60,47,40,29.74,29.44,8,3,13,0.00
2013-11-20,45.9,33.2,22.1,27.4,15.4,8.6,80,51,24,29.74,29.53,8,1,8,0.00
2013-11-21,49.5,43.8,38.8,41.1,28.6,16.8,90,57,39,29.62,29.50,9,2,9,0.08
2013-11-22,44.6,37.7,25.7,43.8,29.9,14.4,97,75,46,29.68,29.47,16,3,16,0.04
2013-11-23,26.6,22.9,15.6,18.7,7.3,-2.3,75,52,31,29.83,29.59,29,6,29,0.00
2013-11-24,25.5,17.8,12.7,5.8,0.5,-2.3,58,47,32,29.88,29.68,8,3,11,0.00
2013-11-25,31.8,25.1,18.7,21.7,3.9,-5.0,75,41,25,29.68,29.38,15,6,15,0.00
2013-11-26,31.6,29.8,27.1,23.6,20.2,13.9,80,67,56,29.41,29.26,11,4,11,0.00
2013-11-27,27.0,21.5,15.8,17.5,4.1,-1.4,68,47,33,29.50,29.26,16,5,25,0.00
2013-11-28,27.0,21.1,12.2,12.5,7.2,1.0,67,55,35,29.74,29.50,6,1,6,0.00
2013-11-29,32.2,24.5,19.9,15.9,11.3,6.9,75,58,40,29.94,29.74,6,0,6,0.00
2013-11-30,44.8,34.1,23.9,17.3,14.0,10.1,63,44,30,29.83,29.38,11,3,11,0.00
2013-12-1,39.0,35.4,31.8,27.1,22.1,16.5,71,59,42,29.38,29.32,10,2,10,0.00
2013-12-2,40.3,32.2,25.2,23.3,18.1,9.9,72,58,31,29.32,29.21,5,0,5,0.00
2013-12-3,36.7,32.3,23.2,31.9,23.1,11.4,84,69,54,29.26,29.15,4,1,6,0.00
2013-12-4,56.5,45.1,36.0,48.8,40.2,31.2,97,83,68,29.21,28.91,8,1,13,0.08
2013-12-5,57.0,40.5,28.8,50.0,23.4,9.1,79,51,35,29.44,28.91,11,4,18,0.00
2013-12-6,28.6,23.9,18.7,9.3,4.4,0.4,45,43,36,29.71,29.44,8,3,10,0.00
2013-12-7,25.2,18.1,10.2,1.5,-1.9,-6.0,49,41,32,29.88,29.71,8,2,15,0.00
2013-12-8,25.5,17.8,9.3,17.1,1.5,-6.8,70,49,36,29.88,29.29,5,2,8,0.00
2013-12-9,29.3,25.1,16.9,23.7,12.6,-1.9,84,60,42,29.38,29.18,11,5,17,0.00
2013-12-10,19.9,15.5,9.0,10.5,-1.4,-10.0,69,47,28,29.47,29.23,10,4,15,0.00
2013-12-11,23.2,15.6,5.7,7.8,-1.4,-14.4,64,47,35,29.74,29.47,10,3,12,0.00
2013-12-12,19.4,12.8,-2.4,5.5,-5.0,-21.7,57,44,34,29.74,29.44,14,5,14,0.00
2013-12-13,26.6,23.0,19.4,12.6,8.2,5.1,63,53,42,29.59,29.44,10,2,10,0.00
2013-12-14,21.4,19.6,15.6,12.7,8.0,3.4,72,60,49,29.59,29.15,9,3,9,0.00
2013-12-15,24.3,17.5,10.2,14.8,5.2,-6.9,76,59,43,29.35,29.12,15,2,15,0.00
2013-12-16,22.8,11.0,-1.5,1.6,-7.3,-17.6,57,43,33,29.47,29.32,8,1,8,0.00
2013-12-17,27.3,21.4,13.6,18.6,11.1,1.4,78,64,50,29.32,29.15,13,3,13,0.00
2013-12-18,29.7,25.6,22.6,20.7,12.0,1.6,83,58,35,29.41,29.18,13,4,13,0.00
2013-12-19,39.9,33.0,26.4,27.2,18.7,5.3,81,56,35,29.32,29.15,11,2,13,0.08
2013-12-20,33.8,32.7,32.4,30.7,29.3,0.0,90,87,81,29.23,29.06,8,0,8,0.31
2013-12-21,32.7,32.2,31.8,30.9,29.5,28.0,94,90,85,29.18,29.03,0,0,0,0.24
2013-12-22,32.4,32.3,32.2,29.8,29.3,28.7,90,88,87,29.03,28.91,0,0,0,0.04
2013-12-27,37.6,34.3,0.0,22.2,20.5,0.0,63,56,48,29.47,29.32,13,4,13,0.04
2013-12-28,45.1,38.6,29.5,24.0,20.0,17.7,74,48,37,29.41,29.21,13,4,13,0.16
2013-12-29,40.3,32.5,18.1,23.5,14.6,-0.1,76,49,38,29.35,29.03,13,5,15,0.12
2013-12-30,20.7,17.1,13.6,2.6,-3.1,-8.2,51,40,34,29.56,29.35,11,3,15,0.00
2013-12-31,18.7,14.8,10.9,5.6,0.8,-6.9,66,54,36,29.62,29.38,11,4,11,0.00
2014-1-1,15.8,12.6,10.8,1.3,-3.3,-7.1,58,48,36,29.71,29.56,7,1,8,0.00
2014-1-2,15.6,10.5,1.2,0.9,-4.1,-14.7,57,51,45,29.62,29.44,15,3,19,0.00